sensor_id;sensor_type;location;lat;lon;timestamp;P1;durP1;ratioP1;P2;durP2;ratioP2
19221;SDS011;9745;50.828;4.378;2022-12-18T14:34:29;31.97;;;15.20;;
19221;SDS011;9745;50.828;4.378;2022-12-18T14:36:55;29.00;;;14.40;;
19221;SDS011;9745;50.828;4.378;2022-12-18T14:39:21;27.13;;;13.90;;
19221;SDS011;9745;50.828;4.378;2022-12-18T14:41:50;29.13;;;14.77;;
19221;SDS011;9745;50.828;4.378;2022-12-18T14:44:16;27.90;;;14.07;;
19221;SDS011;9745;50.828;4.378;2022-12-18T14:46:42;30.03;;;15.87;;
19221;SDS011;9745;50.828;4.378;2022-12-18T14:51:54;25.80;;;14.10;;
19221;SDS011;9745;50.828;4.378;2022-12-18T14:54:21;31.10;;;14.43;;
19221;SDS011;9745;50.828;4.378;2022-12-18T14:57:14;25.43;;;13.87;;
19221;SDS011;9745;50.828;4.378;2022-12-18T14:59:36;31.23;;;14.20;;
19221;SDS011;9745;50.828;4.378;2022-12-18T15:02:04;28.83;;;14.77;;
19221;SDS011;9745;50.828;4.378;2022-12-18T15:04:35;28.53;;;13.67;;
19221;SDS011;9745;50.828;4.378;2022-12-18T15:07:09;26.83;;;13.43;;
19221;SDS011;9745;50.828;4.378;2022-12-18T15:09:37;28.50;;;14.37;;
19221;SDS011;9745;50.828;4.378;2022-12-18T15:12:03;28.40;;;14.20;;
19221;SDS011;9745;50.828;4.378;2022-12-18T15:16:56;34.03;;;16.07;;
19221;SDS011;9745;50.828;4.378;2022-12-18T15:19:26;32.27;;;15.53;;
19221;SDS011;9745;50.828;4.378;2022-12-18T15:21:53;32.93;;;14.77;;
19221;SDS011;9745;50.828;4.378;2022-12-18T15:24:22;29.83;;;14.30;;
19221;SDS011;9745;50.828;4.378;2022-12-18T15:26:50;30.97;;;15.00;;
19221;SDS011;9745;50.828;4.378;2022-12-18T15:29:20;29.23;;;14.17;;
19221;SDS011;9745;50.828;4.378;2022-12-18T15:32:03;30.17;;;14.60;;
19221;SDS011;9745;50.828;4.378;2022-12-18T15:34:30;33.33;;;15.67;;
19221;SDS011;9745;50.828;4.378;2022-12-18T15:36:56;30.47;;;14.90;;
19221;SDS011;9745;50.828;4.378;2022-12-18T15:39:22;29.60;;;15.37;;
19221;SDS011;9745;50.828;4.378;2022-12-18T15:41:48;28.13;;;13.60;;
19221;SDS011;9745;50.828;4.378;2022-12-18T15:44:33;27.27;;;13.60;;
19221;SDS011;9745;50.828;4.378;2022-12-18T15:46:59;29.90;;;15.67;;
19221;SDS011;9745;50.828;4.378;2022-12-18T15:49:25;24.67;;;13.77;;
19221;SDS011;9745;50.828;4.378;2022-12-18T15:51:52;27.27;;;14.37;;
19221;SDS011;9745;50.828;4.378;2022-12-18T15:54:19;28.13;;;13.87;;
19221;SDS011;9745;50.828;4.378;2022-12-18T15:57:04;30.37;;;13.93;;
19221;SDS011;9745;50.828;4.378;2022-12-18T15:59:49;27.10;;;13.53;;
19221;SDS011;9745;50.828;4.378;2022-12-18T16:02:16;30.77;;;14.33;;
19221;SDS011;9745;50.828;4.378;2022-12-18T16:04:42;30.13;;;13.87;;
19221;SDS011;9745;50.828;4.378;2022-12-18T16:07:08;27.47;;;13.17;;
19221;SDS011;9745;50.828;4.378;2022-12-18T16:09:35;24.53;;;13.10;;
19221;SDS011;9745;50.828;4.378;2022-12-18T16:12:01;29.43;;;13.00;;
19221;SDS011;9745;50.828;4.378;2022-12-18T16:14:28;31.40;;;14.20;;
19221;SDS011;9745;50.828;4.378;2022-12-18T16:17:01;27.73;;;13.13;;
19221;SDS011;9745;50.828;4.378;2022-12-18T16:19:28;28.93;;;14.03;;
19221;SDS011;9745;50.828;4.378;2022-12-18T16:21:55;31.27;;;15.37;;
19221;SDS011;9745;50.828;4.378;2022-12-18T16:24:25;27.63;;;13.47;;
19221;SDS011;9745;50.828;4.378;2022-12-18T16:26:52;30.23;;;13.37;;
19221;SDS011;9745;50.828;4.378;2022-12-18T16:29:18;27.27;;;13.20;;
19221;SDS011;9745;50.828;4.378;2022-12-18T16:31:49;25.90;;;13.07;;
19221;SDS011;9745;50.828;4.378;2022-12-18T16:34:25;27.87;;;12.67;;
19221;SDS011;9745;50.828;4.378;2022-12-18T16:36:53;29.33;;;13.73;;
19221;SDS011;9745;50.828;4.378;2022-12-18T16:39:19;29.43;;;14.43;;
19221;SDS011;9745;50.828;4.378;2022-12-18T16:41:46;29.50;;;13.60;;
19221;SDS011;9745;50.828;4.378;2022-12-18T16:44:12;33.23;;;14.27;;
19221;SDS011;9745;50.828;4.378;2022-12-18T16:46:39;29.03;;;12.30;;
19221;SDS011;9745;50.828;4.378;2022-12-18T16:49:07;24.30;;;12.13;;
19221;SDS011;9745;50.828;4.378;2022-12-18T16:51:33;27.93;;;12.57;;
19221;SDS011;9745;50.828;4.378;2022-12-18T16:53:59;25.07;;;13.00;;
19221;SDS011;9745;50.828;4.378;2022-12-18T16:56:26;31.23;;;13.30;;
19221;SDS011;9745;50.828;4.378;2022-12-18T16:58:56;27.07;;;13.30;;
19221;SDS011;9745;50.828;4.378;2022-12-18T17:01:22;27.47;;;13.10;;
19221;SDS011;9745;50.828;4.378;2022-12-18T17:03:58;27.43;;;12.90;;
19221;SDS011;9745;50.828;4.378;2022-12-18T17:06:25;25.67;;;13.33;;
19221;SDS011;9745;50.828;4.378;2022-12-18T17:08:57;24.73;;;12.33;;
19221;SDS011;9745;50.828;4.378;2022-12-18T17:11:40;24.03;;;12.40;;
19221;SDS011;9745;50.828;4.378;2022-12-18T17:14:07;26.37;;;11.87;;
19221;SDS011;9745;50.828;4.378;2022-12-18T17:16:34;26.83;;;11.73;;
19221;SDS011;9745;50.828;4.378;2022-12-18T17:19:00;25.30;;;11.83;;
19221;SDS011;9745;50.828;4.378;2022-12-18T17:21:26;24.47;;;12.00;;
19221;SDS011;9745;50.828;4.378;2022-12-18T17:23:52;25.27;;;11.30;;
19221;SDS011;9745;50.828;4.378;2022-12-18T17:26:18;25.17;;;12.67;;
19221;SDS011;9745;50.828;4.378;2022-12-18T17:28:44;23.73;;;12.07;;
19221;SDS011;9745;50.828;4.378;2022-12-18T17:31:12;26.93;;;12.97;;
19221;SDS011;9745;50.828;4.378;2022-12-18T17:33:38;30.63;;;12.47;;
19221;SDS011;9745;50.828;4.378;2022-12-18T17:36:04;25.93;;;12.63;;
19221;SDS011;9745;50.828;4.378;2022-12-18T17:38:30;24.87;;;12.40;;
19221;SDS011;9745;50.828;4.378;2022-12-18T17:41:00;26.70;;;12.80;;
19221;SDS011;9745;50.828;4.378;2022-12-18T17:43:26;26.93;;;12.23;;
19221;SDS011;9745;50.828;4.378;2022-12-18T17:45:52;26.90;;;12.30;;
19221;SDS011;9745;50.828;4.378;2022-12-18T17:48:18;25.87;;;12.67;;
19221;SDS011;9745;50.828;4.378;2022-12-18T17:50:44;26.30;;;12.60;;
19221;SDS011;9745;50.828;4.378;2022-12-18T17:53:10;26.03;;;13.20;;
19221;SDS011;9745;50.828;4.378;2022-12-18T17:55:36;27.67;;;12.73;;
19221;SDS011;9745;50.828;4.378;2022-12-18T17:58:02;25.37;;;13.30;;
19221;SDS011;9745;50.828;4.378;2022-12-18T18:00:28;32.50;;;13.67;;
19221;SDS011;9745;50.828;4.378;2022-12-18T18:02:54;25.80;;;13.27;;
19221;SDS011;9745;50.828;4.378;2022-12-18T18:05:20;22.33;;;11.53;;
19221;SDS011;9745;50.828;4.378;2022-12-18T18:07:46;27.00;;;12.63;;
19221;SDS011;9745;50.828;4.378;2022-12-18T18:10:12;27.13;;;13.00;;
19221;SDS011;9745;50.828;4.378;2022-12-18T18:12:38;29.27;;;15.23;;
19221;SDS011;9745;50.828;4.378;2022-12-18T18:15:22;30.47;;;15.53;;
19221;SDS011;9745;50.828;4.378;2022-12-18T18:17:48;28.83;;;14.20;;
19221;SDS011;9745;50.828;4.378;2022-12-18T18:20:14;25.97;;;13.23;;
19221;SDS011;9745;50.828;4.378;2022-12-18T18:22:41;29.67;;;14.93;;
19221;SDS011;9745;50.828;4.378;2022-12-18T18:25:07;26.30;;;13.17;;
19221;SDS011;9745;50.828;4.378;2022-12-18T18:27:33;30.47;;;14.07;;
19221;SDS011;9745;50.828;4.378;2022-12-18T18:29:58;33.87;;;15.40;;
19221;SDS011;9745;50.828;4.378;2022-12-18T18:32:25;31.17;;;14.47;;
19221;SDS011;9745;50.828;4.378;2022-12-18T18:34:51;29.40;;;15.10;;
19221;SDS011;9745;50.828;4.378;2022-12-18T18:37:16;30.03;;;15.07;;
19221;SDS011;9745;50.828;4.378;2022-12-18T18:39:42;32.93;;;14.30;;
19221;SDS011;9745;50.828;4.378;2022-12-18T18:42:08;30.30;;;13.87;;
19221;SDS011;9745;50.828;4.378;2022-12-18T18:44:35;29.80;;;15.30;;
19221;SDS011;9745;50.828;4.378;2022-12-18T18:47:01;32.67;;;14.60;;
19221;SDS011;9745;50.828;4.378;2022-12-18T18:49:27;27.90;;;14.07;;
19221;SDS011;9745;50.828;4.378;2022-12-18T18:51:54;33.83;;;14.47;;
19221;SDS011;9745;50.828;4.378;2022-12-18T18:54:20;34.67;;;14.67;;
19221;SDS011;9745;50.828;4.378;2022-12-18T18:56:49;30.90;;;15.30;;
19221;SDS011;9745;50.828;4.378;2022-12-18T18:59:16;29.20;;;14.67;;
19221;SDS011;9745;50.828;4.378;2022-12-18T19:01:42;35.47;;;16.17;;
19221;SDS011;9745;50.828;4.378;2022-12-18T19:04:08;30.97;;;15.33;;
19221;SDS011;9745;50.828;4.378;2022-12-18T19:06:34;33.70;;;16.37;;
19221;SDS011;9745;50.828;4.378;2022-12-18T19:09:01;36.40;;;16.07;;
19221;SDS011;9745;50.828;4.378;2022-12-18T19:11:27;36.63;;;15.97;;
19221;SDS011;9745;50.828;4.378;2022-12-18T19:14:12;31.13;;;15.30;;
19221;SDS011;9745;50.828;4.378;2022-12-18T19:16:39;30.47;;;14.87;;
19221;SDS011;9745;50.828;4.378;2022-12-18T19:19:05;30.93;;;15.47;;
19221;SDS011;9745;50.828;4.378;2022-12-18T19:21:31;32.07;;;14.20;;
19221;SDS011;9745;50.828;4.378;2022-12-18T19:23:57;29.03;;;15.13;;
19221;SDS011;9745;50.828;4.378;2022-12-18T19:26:24;32.50;;;14.53;;
19221;SDS011;9745;50.828;4.378;2022-12-18T19:28:50;32.13;;;15.13;;
19221;SDS011;9745;50.828;4.378;2022-12-18T19:31:16;33.80;;;15.80;;
19221;SDS011;9745;50.828;4.378;2022-12-18T19:33:43;29.97;;;14.53;;
19221;SDS011;9745;50.828;4.378;2022-12-18T19:38:39;37.93;;;15.03;;
19221;SDS011;9745;50.828;4.378;2022-12-18T19:41:06;32.03;;;15.40;;
19221;SDS011;9745;50.828;4.378;2022-12-18T19:43:32;36.57;;;15.47;;
19221;SDS011;9745;50.828;4.378;2022-12-18T19:46:01;31.37;;;15.27;;
19221;SDS011;9745;50.828;4.378;2022-12-18T19:48:28;30.70;;;15.23;;
19221;SDS011;9745;50.828;4.378;2022-12-18T19:50:54;31.77;;;14.57;;
19221;SDS011;9745;50.828;4.378;2022-12-18T19:53:20;32.90;;;15.97;;
19221;SDS011;9745;50.828;4.378;2022-12-18T19:55:46;31.80;;;15.27;;
19221;SDS011;9745;50.828;4.378;2022-12-18T19:58:12;36.57;;;15.97;;
19221;SDS011;9745;50.828;4.378;2022-12-18T20:00:38;31.23;;;15.10;;
19221;SDS011;9745;50.828;4.378;2022-12-18T20:03:04;29.63;;;14.37;;
19221;SDS011;9745;50.828;4.378;2022-12-18T20:05:30;28.20;;;13.93;;
19221;SDS011;9745;50.828;4.378;2022-12-18T20:07:56;31.03;;;14.77;;
19221;SDS011;9745;50.828;4.378;2022-12-18T20:10:22;28.63;;;15.57;;
19221;SDS011;9745;50.828;4.378;2022-12-18T20:12:48;32.57;;;14.60;;
19221;SDS011;9745;50.828;4.378;2022-12-18T20:15:13;30.77;;;14.53;;
19221;SDS011;9745;50.828;4.378;2022-12-18T20:17:39;32.13;;;16.67;;
19221;SDS011;9745;50.828;4.378;2022-12-18T20:20:05;33.67;;;16.93;;
19221;SDS011;9745;50.828;4.378;2022-12-18T20:22:31;31.10;;;15.53;;
19221;SDS011;9745;50.828;4.378;2022-12-18T20:24:57;31.03;;;14.53;;
19221;SDS011;9745;50.828;4.378;2022-12-18T20:27:24;30.33;;;13.63;;
19221;SDS011;9745;50.828;4.378;2022-12-18T20:29:50;28.73;;;13.23;;
19221;SDS011;9745;50.828;4.378;2022-12-18T20:32:16;26.37;;;13.83;;
19221;SDS011;9745;50.828;4.378;2022-12-18T20:34:42;34.27;;;15.73;;
19221;SDS011;9745;50.828;4.378;2022-12-18T20:37:08;26.80;;;13.67;;
19221;SDS011;9745;50.828;4.378;2022-12-18T20:39:34;28.93;;;14.63;;
19221;SDS011;9745;50.828;4.378;2022-12-18T20:42:00;29.37;;;14.77;;
19221;SDS011;9745;50.828;4.378;2022-12-18T20:44:26;28.70;;;15.23;;
19221;SDS011;9745;50.828;4.378;2022-12-18T20:46:56;33.93;;;15.10;;
19221;SDS011;9745;50.828;4.378;2022-12-18T20:49:24;30.97;;;14.67;;
19221;SDS011;9745;50.828;4.378;2022-12-18T20:51:54;26.63;;;13.60;;
19221;SDS011;9745;50.828;4.378;2022-12-18T20:54:21;27.93;;;13.37;;
19221;SDS011;9745;50.828;4.378;2022-12-18T20:56:48;28.93;;;13.60;;
19221;SDS011;9745;50.828;4.378;2022-12-18T20:59:14;29.33;;;13.63;;
19221;SDS011;9745;50.828;4.378;2022-12-18T21:01:40;27.73;;;13.93;;
19221;SDS011;9745;50.828;4.378;2022-12-18T21:04:07;30.40;;;14.27;;
19221;SDS011;9745;50.828;4.378;2022-12-18T21:06:33;26.67;;;13.80;;
19221;SDS011;9745;50.828;4.378;2022-12-18T21:08:59;28.43;;;12.50;;
19221;SDS011;9745;50.828;4.378;2022-12-18T21:11:26;30.70;;;14.13;;
19221;SDS011;9745;50.828;4.378;2022-12-18T21:14:13;26.87;;;13.43;;
19221;SDS011;9745;50.828;4.378;2022-12-18T21:16:39;33.20;;;14.90;;
19221;SDS011;9745;50.828;4.378;2022-12-18T21:19:06;29.57;;;14.40;;
19221;SDS011;9745;50.828;4.378;2022-12-18T21:21:32;31.10;;;14.30;;
19221;SDS011;9745;50.828;4.378;2022-12-18T21:23:58;33.53;;;13.80;;
19221;SDS011;9745;50.828;4.378;2022-12-18T21:26:25;28.53;;;13.90;;
19221;SDS011;9745;50.828;4.378;2022-12-18T21:28:52;36.60;;;14.63;;
19221;SDS011;9745;50.828;4.378;2022-12-18T21:31:22;29.23;;;14.17;;
19221;SDS011;9745;50.828;4.378;2022-12-18T21:33:48;25.60;;;12.73;;
19221;SDS011;9745;50.828;4.378;2022-12-18T21:36:14;33.70;;;14.57;;
19221;SDS011;9745;50.828;4.378;2022-12-18T21:38:40;28.30;;;13.50;;
19221;SDS011;9745;50.828;4.378;2022-12-18T21:41:07;27.10;;;12.93;;
19221;SDS011;9745;50.828;4.378;2022-12-18T21:43:36;27.50;;;13.30;;
19221;SDS011;9745;50.828;4.378;2022-12-18T21:46:21;34.87;;;13.37;;
19221;SDS011;9745;50.828;4.378;2022-12-18T21:48:47;30.97;;;14.20;;
19221;SDS011;9745;50.828;4.378;2022-12-18T21:51:13;30.97;;;13.37;;
19221;SDS011;9745;50.828;4.378;2022-12-18T21:53:39;27.47;;;13.00;;
19221;SDS011;9745;50.828;4.378;2022-12-18T21:56:04;28.53;;;12.87;;
19221;SDS011;9745;50.828;4.378;2022-12-18T21:58:30;30.73;;;14.10;;
19221;SDS011;9745;50.828;4.378;2022-12-18T22:00:56;28.60;;;12.83;;
19221;SDS011;9745;50.828;4.378;2022-12-18T22:03:22;29.47;;;13.37;;
19221;SDS011;9745;50.828;4.378;2022-12-18T22:05:48;28.60;;;13.93;;
19221;SDS011;9745;50.828;4.378;2022-12-18T22:08:14;27.47;;;13.13;;
19221;SDS011;9745;50.828;4.378;2022-12-18T22:10:40;28.17;;;13.83;;
19221;SDS011;9745;50.828;4.378;2022-12-18T22:13:06;29.47;;;12.40;;
19221;SDS011;9745;50.828;4.378;2022-12-18T22:15:32;28.40;;;13.23;;
19221;SDS011;9745;50.828;4.378;2022-12-18T22:17:59;27.60;;;13.37;;
19221;SDS011;9745;50.828;4.378;2022-12-18T22:20:24;30.40;;;13.80;;
19221;SDS011;9745;50.828;4.378;2022-12-18T22:22:50;29.53;;;13.03;;
19221;SDS011;9745;50.828;4.378;2022-12-18T22:25:17;31.07;;;13.80;;
19221;SDS011;9745;50.828;4.378;2022-12-18T22:27:43;25.70;;;12.50;;
19221;SDS011;9745;50.828;4.378;2022-12-18T22:30:32;27.97;;;12.47;;
19221;SDS011;9745;50.828;4.378;2022-12-18T22:32:58;23.93;;;11.90;;
19221;SDS011;9745;50.828;4.378;2022-12-18T22:35:24;26.97;;;12.73;;
19221;SDS011;9745;50.828;4.378;2022-12-18T22:37:50;28.03;;;12.77;;
19221;SDS011;9745;50.828;4.378;2022-12-18T22:40:22;31.57;;;13.47;;
19221;SDS011;9745;50.828;4.378;2022-12-18T22:42:49;26.60;;;12.73;;
19221;SDS011;9745;50.828;4.378;2022-12-18T22:45:14;25.87;;;12.27;;
19221;SDS011;9745;50.828;4.378;2022-12-18T22:47:41;27.77;;;13.20;;
19221;SDS011;9745;50.828;4.378;2022-12-18T22:50:07;32.03;;;14.13;;
19221;SDS011;9745;50.828;4.378;2022-12-18T22:52:33;26.47;;;12.80;;
19221;SDS011;9745;50.828;4.378;2022-12-18T22:54:59;29.03;;;13.83;;
19221;SDS011;9745;50.828;4.378;2022-12-18T22:57:24;26.23;;;11.80;;
19221;SDS011;9745;50.828;4.378;2022-12-18T22:59:51;28.30;;;12.33;;
19221;SDS011;9745;50.828;4.378;2022-12-18T23:02:17;27.80;;;13.23;;
19221;SDS011;9745;50.828;4.378;2022-12-18T23:04:43;24.70;;;11.40;;
19221;SDS011;9745;50.828;4.378;2022-12-18T23:07:09;25.90;;;12.23;;
19221;SDS011;9745;50.828;4.378;2022-12-18T23:09:35;22.57;;;11.93;;
19221;SDS011;9745;50.828;4.378;2022-12-18T23:12:02;28.00;;;13.30;;
19221;SDS011;9745;50.828;4.378;2022-12-18T23:14:28;23.80;;;11.97;;
19221;SDS011;9745;50.828;4.378;2022-12-18T23:16:54;22.00;;;11.60;;
19221;SDS011;9745;50.828;4.378;2022-12-18T23:19:20;26.37;;;12.33;;
19221;SDS011;9745;50.828;4.378;2022-12-18T23:21:46;28.90;;;12.37;;
19221;SDS011;9745;50.828;4.378;2022-12-18T23:24:12;26.10;;;11.07;;
19221;SDS011;9745;50.828;4.378;2022-12-18T23:26:38;22.03;;;10.97;;
19221;SDS011;9745;50.828;4.378;2022-12-18T23:29:04;26.77;;;12.20;;
19221;SDS011;9745;50.828;4.378;2022-12-18T23:31:31;23.27;;;12.13;;
19221;SDS011;9745;50.828;4.378;2022-12-18T23:33:58;22.77;;;11.83;;
19221;SDS011;9745;50.828;4.378;2022-12-18T23:36:25;23.53;;;11.37;;
19221;SDS011;9745;50.828;4.378;2022-12-18T23:38:52;23.53;;;11.63;;
19221;SDS011;9745;50.828;4.378;2022-12-18T23:41:19;22.77;;;11.60;;
19221;SDS011;9745;50.828;4.378;2022-12-18T23:43:45;23.17;;;12.17;;
19221;SDS011;9745;50.828;4.378;2022-12-18T23:46:21;26.13;;;12.10;;
19221;SDS011;9745;50.828;4.378;2022-12-18T23:48:48;24.47;;;11.73;;
19221;SDS011;9745;50.828;4.378;2022-12-18T23:51:14;26.27;;;12.23;;
19221;SDS011;9745;50.828;4.378;2022-12-18T23:53:40;25.10;;;12.10;;
19221;SDS011;9745;50.828;4.378;2022-12-18T23:56:07;22.67;;;11.20;;
19221;SDS011;9745;50.828;4.378;2022-12-18T23:58:33;22.60;;;10.83;;
